sensor_id;sensor_type;location;lat;lon;timestamp;temperature;humidity
10662;DHT22;5379;51.034;7.006;2022-07-17T00:01:40;22.80;88.50
10662;DHT22;5379;51.034;7.006;2022-07-17T00:04:07;22.90;88.80
10662;DHT22;5379;51.034;7.006;2022-07-17T00:06:34;22.90;88.50
10662;DHT22;5379;51.034;7.006;2022-07-17T00:09:03;22.80;88.90
10662;DHT22;5379;51.034;7.006;2022-07-17T00:11:30;22.80;88.70
10662;DHT22;5379;51.034;7.006;2022-07-17T00:13:57;22.80;88.80
10662;DHT22;5379;51.034;7.006;2022-07-17T00:16:24;22.70;88.90
10662;DHT22;5379;51.034;7.006;2022-07-17T00:18:51;22.60;89.10
10662;DHT22;5379;51.034;7.006;2022-07-17T00:21:18;22.60;89.20
10662;DHT22;5379;51.034;7.006;2022-07-17T00:23:45;22.50;89.30
10662;DHT22;5379;51.034;7.006;2022-07-17T00:26:14;22.30;89.80
10662;DHT22;5379;51.034;7.006;2022-07-17T00:28:41;22.30;90.00
10662;DHT22;5379;51.034;7.006;2022-07-17T00:31:08;22.20;90.20
10662;DHT22;5379;51.034;7.006;2022-07-17T00:33:35;22.20;90.20
10662;DHT22;5379;51.034;7.006;2022-07-17T00:36:02;22.30;90.40
10662;DHT22;5379;51.034;7.006;2022-07-17T00:38:30;22.40;90.30
10662;DHT22;5379;51.034;7.006;2022-07-17T00:40:57;22.40;90.20
10662;DHT22;5379;51.034;7.006;2022-07-17T00:43:26;22.30;90.30
10662;DHT22;5379;51.034;7.006;2022-07-17T00:45:57;22.20;90.20
10662;DHT22;5379;51.034;7.006;2022-07-17T00:48:25;22.20;90.40
10662;DHT22;5379;51.034;7.006;2022-07-17T00:50:52;22.10;90.30
10662;DHT22;5379;51.034;7.006;2022-07-17T00:53:20;22.10;90.40
10662;DHT22;5379;51.034;7.006;2022-07-17T00:55:48;22.00;90.50
10662;DHT22;5379;51.034;7.006;2022-07-17T00:58:19;22.00;90.60
10662;DHT22;5379;51.034;7.006;2022-07-17T01:00:49;21.90;90.70
10662;DHT22;5379;51.034;7.006;2022-07-17T01:03:18;21.90;90.80
10662;DHT22;5379;51.034;7.006;2022-07-17T01:05:46;21.90;90.80
10662;DHT22;5379;51.034;7.006;2022-07-17T01:08:13;21.80;90.80
10662;DHT22;5379;51.034;7.006;2022-07-17T01:10:40;21.80;90.80
10662;DHT22;5379;51.034;7.006;2022-07-17T01:13:07;21.70;90.90
10662;DHT22;5379;51.034;7.006;2022-07-17T01:15:36;21.60;91.20
10662;DHT22;5379;51.034;7.006;2022-07-17T01:18:06;21.40;91.50
10662;DHT22;5379;51.034;7.006;2022-07-17T01:20:35;21.40;91.60
10662;DHT22;5379;51.034;7.006;2022-07-17T01:23:04;21.30;91.90
10662;DHT22;5379;51.034;7.006;2022-07-17T01:25:32;21.30;91.90
10662;DHT22;5379;51.034;7.006;2022-07-17T01:28:00;21.20;92.10
10662;DHT22;5379;51.034;7.006;2022-07-17T01:30:27;21.10;92.00
10662;DHT22;5379;51.034;7.006;2022-07-17T01:32:54;21.10;92.20
10662;DHT22;5379;51.034;7.006;2022-07-17T01:35:21;21.10;92.10
10662;DHT22;5379;51.034;7.006;2022-07-17T01:37:48;21.00;92.00
10662;DHT22;5379;51.034;7.006;2022-07-17T01:40:17;21.00;92.20
10662;DHT22;5379;51.034;7.006;2022-07-17T01:42:46;21.00;92.20
10662;DHT22;5379;51.034;7.006;2022-07-17T01:45:15;20.90;92.40
10662;DHT22;5379;51.034;7.006;2022-07-17T01:47:43;21.00;92.30
10662;DHT22;5379;51.034;7.006;2022-07-17T01:50:11;21.00;92.20
10662;DHT22;5379;51.034;7.006;2022-07-17T01:52:40;21.10;92.10
10662;DHT22;5379;51.034;7.006;2022-07-17T01:55:10;21.10;92.10
10662;DHT22;5379;51.034;7.006;2022-07-17T01:57:39;21.00;92.00
10662;DHT22;5379;51.034;7.006;2022-07-17T02:00:09;21.00;92.20
10662;DHT22;5379;51.034;7.006;2022-07-17T02:02:36;20.80;92.40
10662;DHT22;5379;51.034;7.006;2022-07-17T02:05:04;20.80;92.30
10662;DHT22;5379;51.034;7.006;2022-07-17T02:07:31;20.70;92.80
10662;DHT22;5379;51.034;7.006;2022-07-17T02:09:59;20.60;92.50
10662;DHT22;5379;51.034;7.006;2022-07-17T02:12:26;20.60;92.50
10662;DHT22;5379;51.034;7.006;2022-07-17T02:14:54;20.60;92.80
10662;DHT22;5379;51.034;7.006;2022-07-17T02:17:21;20.70;92.60
10662;DHT22;5379;51.034;7.006;2022-07-17T02:19:48;20.60;92.60
10662;DHT22;5379;51.034;7.006;2022-07-17T02:22:15;20.50;92.60
10662;DHT22;5379;51.034;7.006;2022-07-17T02:24:42;20.40;92.80
10662;DHT22;5379;51.034;7.006;2022-07-17T02:27:09;20.40;92.70
10662;DHT22;5379;51.034;7.006;2022-07-17T02:29:36;20.30;93.00
10662;DHT22;5379;51.034;7.006;2022-07-17T02:32:05;20.20;93.10
10662;DHT22;5379;51.034;7.006;2022-07-17T02:34:32;20.20;93.10
10662;DHT22;5379;51.034;7.006;2022-07-17T02:36:59;20.10;93.10
10662;DHT22;5379;51.034;7.006;2022-07-17T02:39:26;20.00;93.50
10662;DHT22;5379;51.034;7.006;2022-07-17T02:41:54;20.00;93.20
10662;DHT22;5379;51.034;7.006;2022-07-17T02:44:20;19.90;93.50
10662;DHT22;5379;51.034;7.006;2022-07-17T02:46:48;19.90;93.60
10662;DHT22;5379;51.034;7.006;2022-07-17T02:49:16;20.10;93.40
10662;DHT22;5379;51.034;7.006;2022-07-17T02:51:43;20.10;93.20
10662;DHT22;5379;51.034;7.006;2022-07-17T02:54:10;20.00;93.30
10662;DHT22;5379;51.034;7.006;2022-07-17T02:56:37;20.00;93.20
10662;DHT22;5379;51.034;7.006;2022-07-17T02:59:04;19.90;93.40
10662;DHT22;5379;51.034;7.006;2022-07-17T03:01:31;19.80;93.30
10662;DHT22;5379;51.034;7.006;2022-07-17T03:03:58;19.80;93.50
10662;DHT22;5379;51.034;7.006;2022-07-17T03:06:26;19.80;93.40
10662;DHT22;5379;51.034;7.006;2022-07-17T03:08:53;19.70;93.30
10662;DHT22;5379;51.034;7.006;2022-07-17T03:11:21;19.60;93.60
10662;DHT22;5379;51.034;7.006;2022-07-17T03:13:48;19.60;93.50
10662;DHT22;5379;51.034;7.006;2022-07-17T03:16:15;19.60;93.70
10662;DHT22;5379;51.034;7.006;2022-07-17T03:18:42;19.60;93.50
10662;DHT22;5379;51.034;7.006;2022-07-17T03:21:09;19.60;93.50
10662;DHT22;5379;51.034;7.006;2022-07-17T03:23:37;19.50;93.60
10662;DHT22;5379;51.034;7.006;2022-07-17T03:26:04;19.60;93.70
10662;DHT22;5379;51.034;7.006;2022-07-17T03:28:31;19.70;93.60
10662;DHT22;5379;51.034;7.006;2022-07-17T03:30:58;19.80;93.40
10662;DHT22;5379;51.034;7.006;2022-07-17T03:33:25;19.80;93.20
10662;DHT22;5379;51.034;7.006;2022-07-17T03:35:52;19.90;93.30
10662;DHT22;5379;51.034;7.006;2022-07-17T03:38:19;19.80;93.30
10662;DHT22;5379;51.034;7.006;2022-07-17T03:40:48;19.70;93.20
10662;DHT22;5379;51.034;7.006;2022-07-17T03:43:15;19.70;93.60
10662;DHT22;5379;51.034;7.006;2022-07-17T03:45:42;19.50;93.40
10662;DHT22;5379;51.034;7.006;2022-07-17T03:48:09;19.50;93.50
10662;DHT22;5379;51.034;7.006;2022-07-17T03:50:36;19.40;93.40
10662;DHT22;5379;51.034;7.006;2022-07-17T03:53:04;19.40;93.50
10662;DHT22;5379;51.034;7.006;2022-07-17T03:55:31;19.30;93.60
10662;DHT22;5379;51.034;7.006;2022-07-17T03:57:59;19.30;93.50
10662;DHT22;5379;51.034;7.006;2022-07-17T04:00:26;19.30;93.70
10662;DHT22;5379;51.034;7.006;2022-07-17T04:02:53;19.30;93.70
10662;DHT22;5379;51.034;7.006;2022-07-17T04:05:20;19.30;93.60
10662;DHT22;5379;51.034;7.006;2022-07-17T04:07:47;19.30;93.60
10662;DHT22;5379;51.034;7.006;2022-07-17T04:10:15;19.20;93.80
10662;DHT22;5379;51.034;7.006;2022-07-17T04:12:42;19.30;93.70
10662;DHT22;5379;51.034;7.006;2022-07-17T04:15:11;19.30;93.80
10662;DHT22;5379;51.034;7.006;2022-07-17T04:17:38;19.40;93.80
10662;DHT22;5379;51.034;7.006;2022-07-17T04:20:06;19.50;93.50
10662;DHT22;5379;51.034;7.006;2022-07-17T04:22:33;19.50;93.50
10662;DHT22;5379;51.034;7.006;2022-07-17T04:25:01;19.60;93.60
10662;DHT22;5379;51.034;7.006;2022-07-17T04:27:28;19.70;93.70
10662;DHT22;5379;51.034;7.006;2022-07-17T04:29:55;19.70;93.50
10662;DHT22;5379;51.034;7.006;2022-07-17T04:32:23;19.90;93.50
10662;DHT22;5379;51.034;7.006;2022-07-17T04:34:50;19.90;93.70
10662;DHT22;5379;51.034;7.006;2022-07-17T04:37:17;20.00;93.30
10662;DHT22;5379;51.034;7.006;2022-07-17T04:39:44;20.00;93.20
10662;DHT22;5379;51.034;7.006;2022-07-17T04:42:11;20.00;93.10
10662;DHT22;5379;51.034;7.006;2022-07-17T04:44:38;20.00;93.30
10662;DHT22;5379;51.034;7.006;2022-07-17T04:47:05;20.10;93.00
10662;DHT22;5379;51.034;7.006;2022-07-17T04:49:34;20.20;92.90
10662;DHT22;5379;51.034;7.006;2022-07-17T04:52:01;20.20;92.90
10662;DHT22;5379;51.034;7.006;2022-07-17T04:54:28;20.20;92.80
10662;DHT22;5379;51.034;7.006;2022-07-17T04:56:55;20.20;92.90
10662;DHT22;5379;51.034;7.006;2022-07-17T04:59:22;20.20;92.90
10662;DHT22;5379;51.034;7.006;2022-07-17T05:01:49;20.30;93.00
10662;DHT22;5379;51.034;7.006;2022-07-17T05:04:16;20.30;92.80
10662;DHT22;5379;51.034;7.006;2022-07-17T05:06:44;20.30;92.90
10662;DHT22;5379;51.034;7.006;2022-07-17T05:09:11;20.30;92.80
10662;DHT22;5379;51.034;7.006;2022-07-17T05:11:38;20.30;92.60
10662;DHT22;5379;51.034;7.006;2022-07-17T05:14:05;20.40;92.70
10662;DHT22;5379;51.034;7.006;2022-07-17T05:16:32;20.50;92.80
10662;DHT22;5379;51.034;7.006;2022-07-17T05:18:59;20.70;92.80
10662;DHT22;5379;51.034;7.006;2022-07-17T05:21:26;20.90;92.20
10662;DHT22;5379;51.034;7.006;2022-07-17T05:23:55;20.90;92.30
10662;DHT22;5379;51.034;7.006;2022-07-17T05:26:22;20.80;92.20
10662;DHT22;5379;51.034;7.006;2022-07-17T05:28:49;20.80;92.50
10662;DHT22;5379;51.034;7.006;2022-07-17T05:31:16;20.90;92.50
10662;DHT22;5379;51.034;7.006;2022-07-17T05:33:43;21.00;92.00
10662;DHT22;5379;51.034;7.006;2022-07-17T05:36:10;21.00;92.40
10662;DHT22;5379;51.034;7.006;2022-07-17T05:38:37;21.10;91.90
10662;DHT22;5379;51.034;7.006;2022-07-17T05:41:06;21.30;92.00
10662;DHT22;5379;51.034;7.006;2022-07-17T05:43:33;21.20;92.10
10662;DHT22;5379;51.034;7.006;2022-07-17T05:46:01;21.20;92.20
10662;DHT22;5379;51.034;7.006;2022-07-17T05:48:30;21.30;91.90
10662;DHT22;5379;51.034;7.006;2022-07-17T05:50:58;21.30;91.90
10662;DHT22;5379;51.034;7.006;2022-07-17T05:53:25;21.20;92.00
10662;DHT22;5379;51.034;7.006;2022-07-17T05:55:52;21.30;91.90
10662;DHT22;5379;51.034;7.006;2022-07-17T05:58:20;21.30;92.20
10662;DHT22;5379;51.034;7.006;2022-07-17T06:00:47;21.20;91.70
10662;DHT22;5379;51.034;7.006;2022-07-17T06:03:15;21.30;91.70
10662;DHT22;5379;51.034;7.006;2022-07-17T06:05:42;21.30;91.70
10662;DHT22;5379;51.034;7.006;2022-07-17T06:08:09;21.60;91.90
10662;DHT22;5379;51.034;7.006;2022-07-17T06:10:36;21.80;91.60
10662;DHT22;5379;51.034;7.006;2022-07-17T06:13:04;22.10;91.70
10662;DHT22;5379;51.034;7.006;2022-07-17T06:15:32;22.00;91.30
10662;DHT22;5379;51.034;7.006;2022-07-17T06:18:00;22.20;91.60
10662;DHT22;5379;51.034;7.006;2022-07-17T06:20:27;22.20;91.80
10662;DHT22;5379;51.034;7.006;2022-07-17T06:22:55;22.10;91.40
10662;DHT22;5379;51.034;7.006;2022-07-17T06:25:22;22.10;91.20
10662;DHT22;5379;51.034;7.006;2022-07-17T06:27:49;22.00;91.10
10662;DHT22;5379;51.034;7.006;2022-07-17T06:30:17;22.00;91.60
10662;DHT22;5379;51.034;7.006;2022-07-17T06:32:45;22.30;91.60
10662;DHT22;5379;51.034;7.006;2022-07-17T06:35:12;22.60;90.80
10662;DHT22;5379;51.034;7.006;2022-07-17T06:37:39;23.00;90.10
10662;DHT22;5379;51.034;7.006;2022-07-17T06:40:07;22.50;90.50
10662;DHT22;5379;51.034;7.006;2022-07-17T06:42:34;22.60;90.20
10662;DHT22;5379;51.034;7.006;2022-07-17T06:45:01;22.50;90.30
10662;DHT22;5379;51.034;7.006;2022-07-17T06:47:28;22.80;90.70
10662;DHT22;5379;51.034;7.006;2022-07-17T06:49:57;23.40;90.80
10662;DHT22;5379;51.034;7.006;2022-07-17T06:52:24;23.30;89.90
10662;DHT22;5379;51.034;7.006;2022-07-17T06:54:51;23.30;90.10
10662;DHT22;5379;51.034;7.006;2022-07-17T06:57:18;23.60;90.00
10662;DHT22;5379;51.034;7.006;2022-07-17T06:59:45;23.50;88.10
10662;DHT22;5379;51.034;7.006;2022-07-17T07:02:12;23.80;90.30
10662;DHT22;5379;51.034;7.006;2022-07-17T07:04:39;23.90;89.80
10662;DHT22;5379;51.034;7.006;2022-07-17T07:07:07;23.90;87.80
10662;DHT22;5379;51.034;7.006;2022-07-17T07:09:34;23.90;90.20
10662;DHT22;5379;51.034;7.006;2022-07-17T07:12:01;24.10;88.00
10662;DHT22;5379;51.034;7.006;2022-07-17T07:14:28;24.10;87.60
10662;DHT22;5379;51.034;7.006;2022-07-17T07:16:56;24.10;88.80
10662;DHT22;5379;51.034;7.006;2022-07-17T07:19:23;24.20;87.00
10662;DHT22;5379;51.034;7.006;2022-07-17T07:21:50;24.40;87.00
10662;DHT22;5379;51.034;7.006;2022-07-17T07:24:18;24.60;90.00
10662;DHT22;5379;51.034;7.006;2022-07-17T07:26:45;24.80;88.30
10662;DHT22;5379;51.034;7.006;2022-07-17T07:29:12;24.80;88.10
10662;DHT22;5379;51.034;7.006;2022-07-17T07:31:39;24.40;86.60
10662;DHT22;5379;51.034;7.006;2022-07-17T07:34:06;24.30;87.60
10662;DHT22;5379;51.034;7.006;2022-07-17T07:36:33;24.30;87.30
10662;DHT22;5379;51.034;7.006;2022-07-17T07:39:01;24.50;88.60
10662;DHT22;5379;51.034;7.006;2022-07-17T07:41:29;25.20;91.00
10662;DHT22;5379;51.034;7.006;2022-07-17T07:43:56;25.40;87.60
10662;DHT22;5379;51.034;7.006;2022-07-17T07:46:23;25.20;87.00
10662;DHT22;5379;51.034;7.006;2022-07-17T07:48:50;25.00;87.70
10662;DHT22;5379;51.034;7.006;2022-07-17T07:51:17;25.20;86.60
10662;DHT22;5379;51.034;7.006;2022-07-17T07:53:44;24.90;86.00
10662;DHT22;5379;51.034;7.006;2022-07-17T07:56:12;25.10;90.30
10662;DHT22;5379;51.034;7.006;2022-07-17T07:58:41;25.40;88.60
10662;DHT22;5379;51.034;7.006;2022-07-17T08:01:08;25.10;84.80
10662;DHT22;5379;51.034;7.006;2022-07-17T08:03:35;24.70;85.90
10662;DHT22;5379;51.034;7.006;2022-07-17T08:06:02;24.40;86.40
10662;DHT22;5379;51.034;7.006;2022-07-17T08:08:32;24.80;90.60
10662;DHT22;5379;51.034;7.006;2022-07-17T08:10:59;24.70;87.10
10662;DHT22;5379;51.034;7.006;2022-07-17T08:13:26;25.20;89.60
10662;DHT22;5379;51.034;7.006;2022-07-17T08:15:54;25.50;89.80
10662;DHT22;5379;51.034;7.006;2022-07-17T08:18:21;25.80;90.30
10662;DHT22;5379;51.034;7.006;2022-07-17T08:20:48;26.00;87.80
10662;DHT22;5379;51.034;7.006;2022-07-17T08:23:15;25.80;85.00
10662;DHT22;5379;51.034;7.006;2022-07-17T08:25:42;26.10;90.00
10662;DHT22;5379;51.034;7.006;2022-07-17T08:28:12;25.60;85.40
10662;DHT22;5379;51.034;7.006;2022-07-17T08:30:39;25.70;86.00
10662;DHT22;5379;51.034;7.006;2022-07-17T08:33:08;26.10;88.40
10662;DHT22;5379;51.034;7.006;2022-07-17T08:35:36;25.70;83.00
10662;DHT22;5379;51.034;7.006;2022-07-17T08:38:04;25.70;86.00
10662;DHT22;5379;51.034;7.006;2022-07-17T08:40:33;25.80;84.40
10662;DHT22;5379;51.034;7.006;2022-07-17T08:43:02;25.70;83.50
10662;DHT22;5379;51.034;7.006;2022-07-17T08:45:30;25.60;86.30
10662;DHT22;5379;51.034;7.006;2022-07-17T08:47:57;25.50;82.70
10662;DHT22;5379;51.034;7.006;2022-07-17T08:50:30;25.90;89.00
10662;DHT22;5379;51.034;7.006;2022-07-17T08:52:57;25.40;81.90
10662;DHT22;5379;51.034;7.006;2022-07-17T08:55:25;25.40;83.10
10662;DHT22;5379;51.034;7.006;2022-07-17T08:57:52;25.70;85.70
10662;DHT22;5379;51.034;7.006;2022-07-17T09:00:20;25.90;87.00
10662;DHT22;5379;51.034;7.006;2022-07-17T09:02:56;26.00;86.10
10662;DHT22;5379;51.034;7.006;2022-07-17T09:05:25;25.90;83.60
10662;DHT22;5379;51.034;7.006;2022-07-17T09:07:54;26.30;84.80
10662;DHT22;5379;51.034;7.006;2022-07-17T09:10:33;26.30;87.00
10662;DHT22;5379;51.034;7.006;2022-07-17T09:13:01;26.10;80.60
10662;DHT22;5379;51.034;7.006;2022-07-17T09:15:39;26.30;87.00
10662;DHT22;5379;51.034;7.006;2022-07-17T09:18:06;26.00;83.10
10662;DHT22;5379;51.034;7.006;2022-07-17T09:20:33;26.30;84.40
10662;DHT22;5379;51.034;7.006;2022-07-17T09:23:04;25.70;80.80
10662;DHT22;5379;51.034;7.006;2022-07-17T09:25:36;25.20;80.90
10662;DHT22;5379;51.034;7.006;2022-07-17T09:28:04;24.80;81.90
10662;DHT22;5379;51.034;7.006;2022-07-17T09:30:32;24.80;81.70
10662;DHT22;5379;51.034;7.006;2022-07-17T09:33:01;24.70;82.30
10662;DHT22;5379;51.034;7.006;2022-07-17T09:35:28;25.80;90.00
10662;DHT22;5379;51.034;7.006;2022-07-17T09:37:56;26.30;89.80
10662;DHT22;5379;51.034;7.006;2022-07-17T09:40:24;26.50;89.10
10662;DHT22;5379;51.034;7.006;2022-07-17T09:43:09;26.50;81.40
10662;DHT22;5379;51.034;7.006;2022-07-17T09:45:36;25.80;80.70
10662;DHT22;5379;51.034;7.006;2022-07-17T09:48:04;25.80;83.20
10662;DHT22;5379;51.034;7.006;2022-07-17T09:50:32;26.30;87.80
10662;DHT22;5379;51.034;7.006;2022-07-17T09:53:00;26.70;89.20
10662;DHT22;5379;51.034;7.006;2022-07-17T09:55:30;26.90;89.50
10662;DHT22;5379;51.034;7.006;2022-07-17T09:57:59;26.80;87.70
10662;DHT22;5379;51.034;7.006;2022-07-17T10:00:27;26.70;86.70
10662;DHT22;5379;51.034;7.006;2022-07-17T10:02:54;26.60;89.60
10662;DHT22;5379;51.034;7.006;2022-07-17T10:05:22;26.60;85.90
10662;DHT22;5379;51.034;7.006;2022-07-17T10:07:49;26.50;86.20
10662;DHT22;5379;51.034;7.006;2022-07-17T10:10:17;26.70;89.60
10662;DHT22;5379;51.034;7.006;2022-07-17T10:12:47;26.70;89.90
10662;DHT22;5379;51.034;7.006;2022-07-17T10:15:15;26.80;88.90
10662;DHT22;5379;51.034;7.006;2022-07-17T10:17:43;26.60;89.60
10662;DHT22;5379;51.034;7.006;2022-07-17T10:20:10;26.70;88.10
10662;DHT22;5379;51.034;7.006;2022-07-17T10:22:43;26.80;88.20
10662;DHT22;5379;51.034;7.006;2022-07-17T10:25:13;26.50;83.80
10662;DHT22;5379;51.034;7.006;2022-07-17T10:27:50;26.30;82.70
10662;DHT22;5379;51.034;7.006;2022-07-17T10:30:24;26.50;85.80
10662;DHT22;5379;51.034;7.006;2022-07-17T10:32:53;26.50;79.50
10662;DHT22;5379;51.034;7.006;2022-07-17T10:35:20;26.50;82.50
10662;DHT22;5379;51.034;7.006;2022-07-17T10:37:47;26.20;82.70
10662;DHT22;5379;51.034;7.006;2022-07-17T10:40:20;26.20;83.50
10662;DHT22;5379;51.034;7.006;2022-07-17T10:42:56;26.70;87.60
10662;DHT22;5379;51.034;7.006;2022-07-17T10:45:26;26.70;80.20
10662;DHT22;5379;51.034;7.006;2022-07-17T10:47:57;25.90;78.20
10662;DHT22;5379;51.034;7.006;2022-07-17T10:50:27;26.40;85.40
10662;DHT22;5379;51.034;7.006;2022-07-17T10:53:03;26.80;88.20
10662;DHT22;5379;51.034;7.006;2022-07-17T10:55:30;26.30;77.50
10662;DHT22;5379;51.034;7.006;2022-07-17T10:57:59;26.10;78.40
10662;DHT22;5379;51.034;7.006;2022-07-17T11:00:27;25.90;77.40
10662;DHT22;5379;51.034;7.006;2022-07-17T11:02:54;26.30;82.00
10662;DHT22;5379;51.034;7.006;2022-07-17T11:05:21;26.30;80.70
10662;DHT22;5379;51.034;7.006;2022-07-17T11:07:53;26.40;87.90
10662;DHT22;5379;51.034;7.006;2022-07-17T11:10:21;26.50;88.90
10662;DHT22;5379;51.034;7.006;2022-07-17T11:12:51;26.60;89.10
10662;DHT22;5379;51.034;7.006;2022-07-17T11:15:19;26.00;90.50
10662;DHT22;5379;51.034;7.006;2022-07-17T11:17:48;26.10;88.70
10662;DHT22;5379;51.034;7.006;2022-07-17T11:20:16;26.00;79.60
10662;DHT22;5379;51.034;7.006;2022-07-17T11:22:43;25.90;79.10
10662;DHT22;5379;51.034;7.006;2022-07-17T11:25:11;26.00;78.10
10662;DHT22;5379;51.034;7.006;2022-07-17T11:27:38;26.60;85.40
10662;DHT22;5379;51.034;7.006;2022-07-17T11:30:11;27.00;86.90
10662;DHT22;5379;51.034;7.006;2022-07-17T11:32:42;26.80;88.40
10662;DHT22;5379;51.034;7.006;2022-07-17T11:35:20;26.90;88.80
10662;DHT22;5379;51.034;7.006;2022-07-17T11:37:49;26.60;78.60
10662;DHT22;5379;51.034;7.006;2022-07-17T11:40:16;26.50;77.40
10662;DHT22;5379;51.034;7.006;2022-07-17T11:42:44;26.40;80.20
10662;DHT22;5379;51.034;7.006;2022-07-17T11:45:11;26.80;84.80
10662;DHT22;5379;51.034;7.006;2022-07-17T11:47:38;26.70;89.20
10662;DHT22;5379;51.034;7.006;2022-07-17T11:50:09;26.60;89.50
10662;DHT22;5379;51.034;7.006;2022-07-17T11:52:42;26.70;89.40
10662;DHT22;5379;51.034;7.006;2022-07-17T11:55:09;26.80;89.70
10662;DHT22;5379;51.034;7.006;2022-07-17T11:57:45;26.90;89.60
10662;DHT22;5379;51.034;7.006;2022-07-17T12:00:14;26.50;78.00
10662;DHT22;5379;51.034;7.006;2022-07-17T12:02:41;26.60;83.80
10662;DHT22;5379;51.034;7.006;2022-07-17T12:05:10;26.50;76.50
10662;DHT22;5379;51.034;7.006;2022-07-17T12:07:43;27.00;79.20
10662;DHT22;5379;51.034;7.006;2022-07-17T12:10:15;27.40;81.80
10662;DHT22;5379;51.034;7.006;2022-07-17T12:12:53;27.10;76.90
10662;DHT22;5379;51.034;7.006;2022-07-17T12:15:32;26.80;74.00
10662;DHT22;5379;51.034;7.006;2022-07-17T12:18:00;27.20;81.40
10662;DHT22;5379;51.034;7.006;2022-07-17T12:20:40;27.00;74.00
10662;DHT22;5379;51.034;7.006;2022-07-17T12:23:08;27.20;74.40
10662;DHT22;5379;51.034;7.006;2022-07-17T12:25:36;27.40;73.70
10662;DHT22;5379;51.034;7.006;2022-07-17T12:28:03;27.30;74.40
10662;DHT22;5379;51.034;7.006;2022-07-17T12:30:30;27.50;78.70
10662;DHT22;5379;51.034;7.006;2022-07-17T12:32:58;27.90;81.20
10662;DHT22;5379;51.034;7.006;2022-07-17T12:35:25;28.00;82.20
10662;DHT22;5379;51.034;7.006;2022-07-17T12:37:54;27.50;77.70
10662;DHT22;5379;51.034;7.006;2022-07-17T12:40:21;27.70;83.00
10662;DHT22;5379;51.034;7.006;2022-07-17T12:42:48;27.70;81.60
10662;DHT22;5379;51.034;7.006;2022-07-17T12:45:15;27.30;75.70
10662;DHT22;5379;51.034;7.006;2022-07-17T12:47:43;27.60;85.80
10662;DHT22;5379;51.034;7.006;2022-07-17T12:50:10;27.50;87.50
10662;DHT22;5379;51.034;7.006;2022-07-17T12:52:37;27.00;84.10
10662;DHT22;5379;51.034;7.006;2022-07-17T12:55:06;26.80;85.90
10662;DHT22;5379;51.034;7.006;2022-07-17T12:57:33;27.10;87.20
10662;DHT22;5379;51.034;7.006;2022-07-17T13:00:01;27.10;83.50
10662;DHT22;5379;51.034;7.006;2022-07-17T13:02:28;27.10;85.40
10662;DHT22;5379;51.034;7.006;2022-07-17T13:04:55;26.90;89.00
10662;DHT22;5379;51.034;7.006;2022-07-17T13:07:22;26.80;80.30
10662;DHT22;5379;51.034;7.006;2022-07-17T13:09:49;26.80;77.00
10662;DHT22;5379;51.034;7.006;2022-07-17T13:12:17;27.20;74.30
10662;DHT22;5379;51.034;7.006;2022-07-17T13:14:44;27.80;82.90
10662;DHT22;5379;51.034;7.006;2022-07-17T13:17:11;27.80;85.00
10662;DHT22;5379;51.034;7.006;2022-07-17T13:19:38;27.50;75.00
10662;DHT22;5379;51.034;7.006;2022-07-17T13:22:06;27.40;75.20
10662;DHT22;5379;51.034;7.006;2022-07-17T13:24:33;27.40;75.90
10662;DHT22;5379;51.034;7.006;2022-07-17T13:27:00;27.90;76.50
10662;DHT22;5379;51.034;7.006;2022-07-17T13:29:29;28.00;83.90
10662;DHT22;5379;51.034;7.006;2022-07-17T13:31:56;27.70;73.70
10662;DHT22;5379;51.034;7.006;2022-07-17T13:34:23;27.40;82.80
10662;DHT22;5379;51.034;7.006;2022-07-17T13:36:50;27.40;70.80
10662;DHT22;5379;51.034;7.006;2022-07-17T13:39:18;27.80;83.10
10662;DHT22;5379;51.034;7.006;2022-07-17T13:41:45;27.70;72.20
10662;DHT22;5379;51.034;7.006;2022-07-17T13:44:12;27.80;83.10
10662;DHT22;5379;51.034;7.006;2022-07-17T13:46:41;27.80;80.70
10662;DHT22;5379;51.034;7.006;2022-07-17T13:49:08;27.80;82.50
10662;DHT22;5379;51.034;7.006;2022-07-17T13:51:35;27.50;83.10
10662;DHT22;5379;51.034;7.006;2022-07-17T13:54:02;27.30;85.60
10662;DHT22;5379;51.034;7.006;2022-07-17T13:56:29;27.30;87.70
10662;DHT22;5379;51.034;7.006;2022-07-17T13:58:56;27.00;81.70
10662;DHT22;5379;51.034;7.006;2022-07-17T14:01:23;27.10;86.10
10662;DHT22;5379;51.034;7.006;2022-07-17T14:03:52;27.10;78.80
10662;DHT22;5379;51.034;7.006;2022-07-17T14:06:20;27.20;87.60
10662;DHT22;5379;51.034;7.006;2022-07-17T14:08:47;26.90;80.50
10662;DHT22;5379;51.034;7.006;2022-07-17T14:11:14;26.90;80.70
10662;DHT22;5379;51.034;7.006;2022-07-17T14:13:41;27.40;81.10
10662;DHT22;5379;51.034;7.006;2022-07-17T14:16:08;27.40;75.10
10662;DHT22;5379;51.034;7.006;2022-07-17T14:18:35;27.70;82.40
10662;DHT22;5379;51.034;7.006;2022-07-17T14:21:24;27.80;82.10
10662;DHT22;5379;51.034;7.006;2022-07-17T14:23:51;27.80;84.30
10662;DHT22;5379;51.034;7.006;2022-07-17T14:26:18;27.50;86.70
10662;DHT22;5379;51.034;7.006;2022-07-17T14:28:45;27.20;74.50
10662;DHT22;5379;51.034;7.006;2022-07-17T14:31:12;27.50;79.30
10662;DHT22;5379;51.034;7.006;2022-07-17T14:33:39;27.50;72.80
10662;DHT22;5379;51.034;7.006;2022-07-17T14:36:06;27.70;78.20
10662;DHT22;5379;51.034;7.006;2022-07-17T14:38:35;28.20;80.20
10662;DHT22;5379;51.034;7.006;2022-07-17T14:41:02;28.10;83.90
10662;DHT22;5379;51.034;7.006;2022-07-17T14:43:29;27.80;81.90
10662;DHT22;5379;51.034;7.006;2022-07-17T14:45:56;27.70;86.30
10662;DHT22;5379;51.034;7.006;2022-07-17T14:48:23;27.30;87.60
10662;DHT22;5379;51.034;7.006;2022-07-17T14:50:50;27.30;88.10
10662;DHT22;5379;51.034;7.006;2022-07-17T14:53:17;27.00;78.00
10662;DHT22;5379;51.034;7.006;2022-07-17T14:55:46;27.40;80.20
10662;DHT22;5379;51.034;7.006;2022-07-17T14:58:13;27.60;77.20
10662;DHT22;5379;51.034;7.006;2022-07-17T15:00:40;27.70;81.80
10662;DHT22;5379;51.034;7.006;2022-07-17T15:03:07;27.90;85.80
10662;DHT22;5379;51.034;7.006;2022-07-17T15:05:34;27.60;78.60
10662;DHT22;5379;51.034;7.006;2022-07-17T15:08:01;27.70;84.50
10662;DHT22;5379;51.034;7.006;2022-07-17T15:10:28;28.00;84.00
10662;DHT22;5379;51.034;7.006;2022-07-17T15:12:57;28.10;85.30
10662;DHT22;5379;51.034;7.006;2022-07-17T15:15:24;27.90;78.50
10662;DHT22;5379;51.034;7.006;2022-07-17T15:17:51;28.00;81.80
10662;DHT22;5379;51.034;7.006;2022-07-17T15:20:18;28.20;80.10
10662;DHT22;5379;51.034;7.006;2022-07-17T15:22:46;28.10;75.80
10662;DHT22;5379;51.034;7.006;2022-07-17T15:25:13;28.20;76.80
10662;DHT22;5379;51.034;7.006;2022-07-17T15:27:40;28.60;80.50
10662;DHT22;5379;51.034;7.006;2022-07-17T15:30:09;28.10;75.50
10662;DHT22;5379;51.034;7.006;2022-07-17T15:32:36;28.40;77.00
10662;DHT22;5379;51.034;7.006;2022-07-17T15:35:04;28.50;84.00
10662;DHT22;5379;51.034;7.006;2022-07-17T15:37:31;28.30;80.90
10662;DHT22;5379;51.034;7.006;2022-07-17T15:39:58;28.10;86.10
10662;DHT22;5379;51.034;7.006;2022-07-17T15:42:26;27.80;80.50
10662;DHT22;5379;51.034;7.006;2022-07-17T15:44:53;27.60;77.50
10662;DHT22;5379;51.034;7.006;2022-07-17T15:47:22;27.90;77.90
10662;DHT22;5379;51.034;7.006;2022-07-17T15:49:49;28.10;78.40